This is the latest recevied weather packets stored in our database for station/object VK3MAK-1. If no packets are shown the sender has not sent any weather packets the latest 1 day(s).
| Time | Temp. | Humidity | Pressure | Rain* | Wind** | Luminosity | Snow |
|---|---|---|---|---|---|---|---|
| 1778108405 | 6.67° C | 10% | - | 0 mm | 3.13 m/s, 248° | - | - |
| 1778107204 | 6.67° C | 10% | - | 0.51 mm | 3.13 m/s, 248° | - | - |
| 1778104203 | 6.11° C | 93% | 1022.9 hPa | 0 mm | 2.68 m/s, 248° | - | - |
| 1778100603 | 6.11° C | 85% | 1022.3 hPa | 0.25 mm | 3.58 m/s, 248° | - | - |
| 1778086804 | 5.56° C | 85% | 1020.8 hPa | 0 mm | 3.13 m/s, 248° | - | - |
| 1778082603 | 6.11° C | 83% | 1020.5 hPa | 0 mm | 4.47 m/s, 248° | - | - |
| 1778082003 | 6.11° C | 83% | 1020.5 hPa | 0 mm | 4.47 m/s, 248° | - | - |
| 1778077204 | 7.22° C | 81% | 1020.3 hPa | 0 mm | 7.6 m/s, 248° | - | - |
| 1778075404 | 7.22° C | 76% | 1020.1 hPa | 0 mm | 4.02 m/s, 270° | - | - |
| 1778074804 | 7.22° C | 76% | 1020.1 hPa | 0 mm | 4.02 m/s, 270° | - | - |
| 1778074204 | 6.67° C | 79% | 1020 hPa | 0 mm | 3.58 m/s, 270° | - | - |
| 1778073604 | 6.67° C | 79% | 1020 hPa | 0 mm | 3.58 m/s, 270° | - | - |
| 1778073003 | 6.67° C | 79% | 1020 hPa | 0 mm | 3.58 m/s, 270° | - | - |
| 1778071204 | 6.67° C | 84% | 1020.2 hPa | 0 mm | 3.58 m/s, 225° | - | - |
| 1778068203 | 7.78° C | 78% | 1020 hPa | 0 mm | 2.68 m/s, 270° | - | - |
| 1778056208 | 9.44° C | 10% | - | 0 mm | 7.6 m/s, 248° | - | - |
| 1778047804 | 12.22° C | 10% | - | 0 mm | 7.6 m/s, 225° | - | - |
| 1778044804 | 17.22° C | 75% | 1015.2 hPa | 0 mm | 6.71 m/s, 293° | - | - |
| 1778044204 | 17.22° C | 75% | 1015.2 hPa | 0 mm | 6.71 m/s, 293° | - | - |
| 1778042404 | 16.11° C | 91% | 1015.5 hPa | 0 mm | 6.26 m/s, 293° | - | - |
| 1778041804 | 15.56° C | 10% | - | 0 mm | 5.81 m/s, 293° | - | - |
| 1778041203 | 15.56° C | 10% | - | 0 mm | 5.81 m/s, 293° | - | - |
| 1778040604 | 15.56° C | 10% | - | 0 mm | 5.81 m/s, 293° | - | - |
| 1778040003 | 13.89° C | 10% | - | 0 mm | 7.15 m/s, 293° | - | - |
| 1778037603 | 14.44° C | 10% | - | 0 mm | 6.71 m/s, 293° | - | - |
* Rain latest hour (hover to see other rain measurements)
** Current wind speed in m/s (hover to see current wind gust speed)